createdAt,value
2022-09-05T00:01:32.844Z,100.00
2022-09-05T00:06:40.923Z,100.00
2022-09-05T00:11:47.341Z,100.00
2022-09-05T00:16:56.171Z,100.00
2022-09-05T00:24:27.972Z,100.00
2022-09-05T00:27:42.623Z,100.00
2022-09-05T00:33:27.228Z,100.00
2022-09-05T00:38:34.828Z,100.00
2022-09-05T00:43:42.411Z,100.00
2022-09-05T00:48:47.921Z,100.00
2022-09-05T00:54:00.657Z,100.00
2022-09-05T00:59:39.321Z,100.00
2022-09-05T01:04:45.939Z,100.00
2022-09-05T01:10:03.094Z,100.00
2022-09-05T01:15:15.349Z,100.00
2022-09-05T01:20:32.095Z,100.00
2022-09-05T01:25:54.748Z,100.00
2022-09-05T01:31:06.601Z,100.00
2022-09-05T01:36:33.660Z,100.00
2022-09-05T01:41:46.009Z,100.00
2022-09-05T01:46:57.831Z,100.00
2022-09-05T01:52:19.680Z,100.00
2022-09-05T01:57:26.405Z,100.00
2022-09-05T02:02:50.414Z,100.00
2022-09-05T02:08:04.267Z,100.00
2022-09-05T02:13:15.712Z,100.00
2022-09-05T02:18:24.422Z,100.00
2022-09-05T02:23:41.475Z,100.00
2022-09-05T02:28:51.252Z,100.00
2022-09-05T02:34:01.693Z,100.00
2022-09-05T02:45:03.086Z,100.00
2022-09-05T02:45:18.446Z,100.00
2022-09-05T02:54:03.422Z,100.00
2022-09-05T02:57:34.883Z,100.00
2022-09-05T03:01:28.552Z,100.00
2022-09-05T03:06:36.241Z,100.00
2022-09-05T03:12:29.376Z,100.00
2022-09-05T03:18:21.099Z,100.00
2022-09-05T03:23:50.623Z,100.00
2022-09-05T03:29:18.899Z,100.00
2022-09-05T03:34:54.951Z,100.00
2022-09-05T03:40:22.787Z,100.00
2022-09-05T03:45:51.909Z,100.00
2022-09-05T03:57:08.679Z,100.00
2022-09-05T03:57:15.589Z,100.00
2022-09-05T04:08:08.563Z,100.00
2022-09-05T04:08:28.122Z,100.00
2022-09-05T04:12:57.599Z,100.00
2022-09-05T04:18:03.722Z,100.00
2022-09-05T04:23:18.850Z,100.00
2022-09-05T04:28:41.386Z,100.00
2022-09-05T04:34:01.110Z,100.00
2022-09-05T04:39:25.028Z,100.00
2022-09-05T04:44:32.216Z,100.00
2022-09-05T04:49:39.180Z,100.00
2022-09-05T04:54:45.988Z,100.00
2022-09-05T05:05:25.060Z,100.00
2022-09-05T05:06:19.100Z,100.00
2022-09-05T05:15:17.415Z,100.00
2022-09-05T05:18:11.322Z,100.00
2022-09-05T05:21:38.969Z,100.00
2022-09-05T05:26:45.143Z,100.00
2022-09-05T05:31:52.506Z,100.00
2022-09-05T05:37:00.523Z,100.00
2022-09-05T05:42:20.666Z,100.00
2022-09-05T05:47:31.788Z,100.00
2022-09-05T05:53:01.459Z,100.00
2022-09-05T05:58:16.021Z,100.00
2022-09-05T06:03:49.871Z,100.00
2022-09-05T06:14:52.328Z,100.00
2022-09-05T06:15:22.933Z,100.00
2022-09-05T06:22:06.423Z,100.00
2022-09-05T06:26:52.635Z,100.00
2022-09-05T06:32:05.505Z,100.00
2022-09-05T06:37:17.067Z,100.00
2022-09-05T06:42:42.508Z,100.00
2022-09-05T06:47:46.595Z,100.00
2022-09-05T06:53:32.510Z,100.00
2022-09-05T06:59:12.120Z,100.00
2022-09-05T07:05:23.072Z,100.00
2022-09-05T07:09:55.475Z,100.00
2022-09-05T07:15:02.358Z,100.00
2022-09-05T07:20:22.158Z,100.00
2022-09-05T07:25:33.188Z,100.00
2022-09-05T07:30:41.788Z,100.00
2022-09-05T07:35:44.566Z,100.00
2022-09-05T07:40:52.217Z,100.00
2022-09-05T07:46:11.699Z,100.00
2022-09-05T07:56:55.497Z,100.00
2022-09-05T07:57:20.775Z,100.00
2022-09-05T08:02:13.179Z,100.00
2022-09-05T08:07:49.439Z,100.00
2022-09-05T08:13:22.518Z,100.00
2022-09-05T08:18:11.908Z,100.00
2022-09-05T08:23:30.105Z,100.00
2022-09-05T08:28:41.308Z,100.00
2022-09-05T08:33:44.397Z,100.00
2022-09-05T08:38:47.180Z,100.00
2022-09-05T08:46:42.599Z,100.00
2022-09-05T08:49:39.434Z,100.00
2022-09-05T08:55:05.712Z,100.00
2022-09-05T09:00:20.675Z,100.00
2022-09-05T09:05:59.372Z,100.00
2022-09-05T09:11:13.356Z,100.00
2022-09-05T09:16:27.854Z,100.00
2022-09-05T09:21:36.793Z,100.00
2022-09-05T09:26:43.457Z,100.00
2022-09-05T09:32:00.735Z,100.00
2022-09-05T09:37:50.975Z,100.00
2022-09-05T09:42:57.287Z,100.00
2022-09-05T09:48:24.295Z,100.00
2022-09-05T09:53:40.348Z,100.00
2022-09-05T09:59:00.404Z,100.00
2022-09-05T10:09:59.566Z,100.00
2022-09-05T10:10:44.490Z,100.00
2022-09-05T10:15:31.586Z,100.00
2022-09-05T10:21:26.357Z,100.00
2022-09-05T10:27:04.583Z,100.00
2022-09-05T10:35:10.063Z,100.00
2022-09-05T10:37:41.462Z,100.00
2022-09-05T10:42:56.945Z,100.00
2022-09-05T10:48:13.317Z,100.00
2022-09-05T10:53:38.939Z,100.00
2022-09-05T11:02:19.198Z,100.00
2022-09-05T11:04:49.559Z,97.18
2022-09-05T11:10:03.020Z,89.42
2022-09-05T11:15:07.795Z,89.73
2022-09-05T11:20:37.056Z,82.80
2022-09-05T11:25:41.499Z,80.64
2022-09-05T11:30:49.168Z,81.82
2022-09-05T11:39:47.984Z,75.01
2022-09-05T11:41:32.066Z,78.80
2022-09-05T11:46:38.950Z,84.89
2022-09-05T11:52:06.816Z,75.92
2022-09-05T11:57:32.444Z,75.39
2022-09-05T12:02:55.579Z,73.84
2022-09-05T12:08:06.291Z,74.43
2022-09-05T12:13:37.098Z,75.49
2022-09-05T12:18:45.795Z,69.03
2022-09-05T12:24:24.843Z,70.01
2022-09-05T12:29:29.406Z,71.57
2022-09-05T12:36:10.819Z,73.22
2022-09-05T12:41:37.924Z,70.63
2022-09-05T12:45:44.921Z,66.87
2022-09-05T12:50:55.926Z,69.17
2022-09-05T12:57:40.287Z,63.97
2022-09-05T13:03:02.329Z,65.72
2022-09-05T13:06:57.444Z,65.34
2022-09-05T13:14:53.446Z,75.31
2022-09-05T13:17:44.454Z,74.06
2022-09-05T13:22:50.430Z,74.47
2022-09-05T13:27:57.463Z,74.55
2022-09-05T13:37:59.937Z,74.46
2022-09-05T13:38:48.619Z,77.26
2022-09-05T13:43:52.271Z,73.74
2022-09-05T13:49:28.322Z,70.35
2022-09-05T13:54:40.725Z,71.77
2022-09-05T14:00:35.374Z,70.75
2022-09-05T14:05:44.944Z,69.54
2022-09-05T14:11:31.096Z,73.22
2022-09-05T14:16:41.988Z,72.64
2022-09-05T14:21:58.164Z,73.30
2022-09-05T14:27:10.126Z,72.16
2022-09-05T14:37:55.134Z,69.94
2022-09-05T14:38:14.814Z,71.09
2022-09-05T14:43:40.266Z,71.41
2022-09-05T14:49:02.131Z,77.36
2022-09-05T15:02:45.491Z,75.06
2022-09-05T15:05:09.233Z,74.38
2022-09-05T15:12:20.229Z,75.56
2022-09-05T15:16:02.880Z,74.53
2022-09-05T15:21:33.422Z,73.87
2022-09-05T15:26:48.660Z,74.77
2022-09-05T15:32:13.984Z,74.20
2022-09-05T15:37:25.044Z,74.63
2022-09-05T15:42:32.614Z,74.88
2022-09-05T15:47:36.334Z,75.31
2022-09-05T15:52:43.052Z,75.20
2022-09-05T15:57:49.573Z,75.49
2022-09-05T16:03:05.327Z,72.75
2022-09-05T16:10:34.624Z,77.27
2022-09-05T16:13:51.966Z,75.96
2022-09-05T16:23:32.905Z,76.60
2022-09-05T16:24:24.656Z,77.27
2022-09-05T16:29:40.073Z,77.88
2022-09-05T16:34:49.668Z,78.64
2022-09-05T16:39:55.517Z,79.58
2022-09-05T16:44:59.581Z,81.37
2022-09-05T16:50:06.159Z,79.68
2022-09-05T16:55:29.034Z,82.15
2022-09-05T17:00:45.579Z,85.89
2022-09-05T17:05:48.664Z,85.34
2022-09-05T17:10:58.210Z,84.38
2022-09-05T17:16:08.684Z,87.17
2022-09-05T17:21:35.215Z,89.77
2022-09-05T17:29:25.252Z,91.76
2022-09-05T17:32:06.211Z,93.34
2022-09-05T17:37:22.952Z,94.97
2022-09-05T17:42:32.799Z,95.60
2022-09-05T17:47:48.171Z,98.89
2022-09-05T17:53:25.305Z,100.00
2022-09-05T17:58:48.999Z,100.00
2022-09-05T18:04:16.761Z,100.00
2022-09-05T18:10:15.165Z,100.00
2022-09-05T18:16:12.537Z,100.00
2022-09-05T18:21:22.126Z,100.00
2022-09-05T18:26:27.344Z,100.00
2022-09-05T18:31:59.795Z,100.00
2022-09-05T18:37:46.977Z,100.00
2022-09-05T18:42:51.563Z,100.00
2022-09-05T18:47:59.466Z,100.00
2022-09-05T18:53:09.177Z,100.00
2022-09-05T18:58:14.479Z,100.00
2022-09-05T19:03:24.839Z,100.00
2022-09-05T19:08:31.934Z,100.00
2022-09-05T19:13:37.509Z,100.00
2022-09-05T19:19:08.906Z,100.00
2022-09-05T19:24:13.425Z,100.00
2022-09-05T19:36:50.444Z,100.00
2022-09-05T19:37:02.247Z,100.00
2022-09-05T19:43:07.422Z,100.00
2022-09-05T19:47:49.001Z,100.00
2022-09-05T19:51:16.884Z,100.00
2022-09-05T19:56:22.448Z,100.00
2022-09-05T20:01:25.819Z,100.00
2022-09-05T20:06:31.229Z,100.00
2022-09-05T20:11:45.715Z,100.00
2022-09-05T20:16:50.467Z,100.00
2022-09-05T20:21:57.020Z,100.00
2022-09-05T20:27:00.455Z,100.00
2022-09-05T20:32:03.951Z,100.00
2022-09-05T20:43:18.113Z,100.00
2022-09-05T20:43:31.958Z,100.00
2022-09-05T20:54:09.786Z,100.00
2022-09-05T20:54:20.952Z,100.00
2022-09-05T20:58:55.582Z,100.00
2022-09-05T21:03:59.951Z,100.00
2022-09-05T21:09:14.471Z,100.00
2022-09-05T21:14:19.504Z,100.00
2022-09-05T21:19:26.146Z,100.00
2022-09-05T21:24:30.170Z,100.00
2022-09-05T21:29:33.688Z,100.00
2022-09-05T21:34:45.211Z,100.00
2022-09-05T21:39:59.168Z,100.00
2022-09-05T21:47:42.151Z,100.00
2022-09-05T21:50:31.546Z,100.00
2022-09-05T21:59:21.902Z,100.00
2022-09-05T22:00:59.193Z,100.00
2022-09-05T22:06:07.143Z,100.00
2022-09-05T22:11:13.861Z,100.00
2022-09-05T22:16:16.733Z,100.00
2022-09-05T22:21:34.038Z,100.00
2022-09-05T22:26:50.758Z,100.00
2022-09-05T22:32:07.903Z,100.00
2022-09-05T22:37:10.614Z,100.00
2022-09-05T22:42:14.579Z,100.00
2022-09-05T22:47:17.228Z,100.00
2022-09-05T22:52:19.872Z,100.00
2022-09-05T22:57:23.863Z,100.00
2022-09-05T23:02:26.506Z,100.00
2022-09-05T23:07:29.908Z,100.00
2022-09-05T23:12:37.512Z,100.00
2022-09-05T23:17:40.220Z,100.00
2022-09-05T23:22:43.022Z,100.00
2022-09-05T23:27:47.093Z,100.00
2022-09-05T23:32:51.635Z,100.00
2022-09-05T23:37:54.283Z,100.00
2022-09-05T23:43:01.023Z,100.00
2022-09-05T23:48:04.086Z,100.00
2022-09-05T23:53:06.712Z,100.00
2022-09-05T23:58:11.201Z,100.00
